首页
METAR-TAF:

METAR-TAF

机场 :

波城, 法国

纬度: 43-23N, 经度: 000-25W, 海拔: 188米

当前天气观测

该预报发布于36分钟前的18:00 UTC
风速14节,风向西转西南
温度 16°C
湿度 88%
气压 1007 hPa
能见度10公里或以上

METAR: LFBP 041800Z AUTO 25014KT 9999 SCT021/// SCT027/// ///CB 16/14 Q1007 TEMPO 4000 SHRA

时间: 20:36 (18:36 UTC)

预报

该预报发布于1小时和36分钟前的17:00 UTC
预报有效从04日的 18点(UTC)到 05日的 18点(UTC)
风速10节,风向西
能见度10公里或以上
多云层高于1700英尺, 塔状积云.
短暂存在
从 04日的 18点(UTC)到 04日的 20点(UTC)
能見度: 4000
少量云层高于1200英尺, 积雨云.
多云层高于1500英尺, 塔状积云.
阵雨
短暂存在
从 04日的 20点(UTC)到 04日的 23点(UTC)
小阵雨
成为
从 04日的 23点(UTC)到 05日的 01点(UTC)
风速2节,风向多变
多云层高于3000英尺
短暂存在
从 05日的 08点(UTC)到 05日的 12点(UTC)
风速10节,风向西转西南
能見度: 4000
多云层高于1000英尺
小雨
成为
从 05日的 12点(UTC)到 05日的 14点(UTC)
风速15节,风向西,有时为25节阵风

TAF: LFBP 041700Z 0418/0518 27010KT 9999 BKN017TCU TEMPO 0418/0420 4000 SHRA FEW012CB BKN015TCU TEMPO 0420/0423 -SHRA BECMG 0423/0501 VRB02KT BKN030 TEMPO 0508/0512 24010KT 4000 -RA BKN010 BECMG 0512/0514 26015G25KT

超过4000个机场的气象观测和天气预报(METAR&TAF报告)。

可查询的气象台以黄色和红色小点在地图上表示。

将鼠标移到小点上方,可查看气象台名称。

然后点击查看天气观测和预报。

如需切换地图:点击带黑十字的绿色按钮放大地图;点击带横线的绿色按钮缩小地图;或者点击绿色箭头查看邻近地区的地图。


METAR-TAF: